sensor_id;sensor_type;location;lat;lon;timestamp;pressure;altitude;pressure_sealevel;temperature;humidity
8756;BME280;4414;42.670;23.228;2022-07-29T00:02:23;44891.13;;;-137.01;100.00
8756;BME280;4414;42.670;23.228;2022-07-29T00:04:50;44854.78;;;-137.01;100.00
8756;BME280;4414;42.670;23.228;2022-07-29T00:07:17;44893.03;;;-137.01;100.00
8756;BME280;4414;42.670;23.228;2022-07-29T00:09:43;44875.81;;;-137.01;100.00
8756;BME280;4414;42.670;23.228;2022-07-29T00:12:12;44885.38;;;-137.01;100.00
8756;BME280;4414;42.670;23.228;2022-07-29T00:14:38;44881.56;;;-137.01;100.00
8756;BME280;4414;42.670;23.228;2022-07-29T00:17:05;44875.81;;;-137.01;100.00
8756;BME280;4414;42.670;23.228;2022-07-29T00:19:32;44870.06;;;-137.01;100.00
8756;BME280;4414;42.670;23.228;2022-07-29T00:21:59;44870.06;;;-137.01;100.00
8756;BME280;4414;42.670;23.228;2022-07-29T00:24:26;44885.38;;;-137.01;100.00
8756;BME280;4414;42.670;23.228;2022-07-29T00:26:53;44875.81;;;-137.01;100.00
8756;BME280;4414;42.670;23.228;2022-07-29T00:29:21;44883.47;;;-137.01;100.00
8756;BME280;4414;42.670;23.228;2022-07-29T00:31:48;44898.75;;;-137.01;100.00
8756;BME280;4414;42.670;23.228;2022-07-29T00:34:14;44881.56;;;-137.01;100.00
8756;BME280;4414;42.670;23.228;2022-07-29T00:36:55;44870.06;;;-137.01;100.00
8756;BME280;4414;42.670;23.228;2022-07-29T00:39:22;44883.47;;;-137.01;100.00
8756;BME280;4414;42.670;23.228;2022-07-29T00:41:49;44860.50;;;-137.01;100.00
8756;BME280;4414;42.670;23.228;2022-07-29T00:44:15;44889.19;;;-137.01;100.00
8756;BME280;4414;42.670;23.228;2022-07-29T00:46:43;44896.84;;;-137.01;100.00
8756;BME280;4414;42.670;23.228;2022-07-29T00:49:10;44852.88;;;-137.01;100.00
8756;BME280;4414;42.670;23.228;2022-07-29T00:51:38;44887.28;;;-137.01;100.00
8756;BME280;4414;42.670;23.228;2022-07-29T00:54:07;44894.94;;;-137.01;100.00
8756;BME280;4414;42.670;23.228;2022-07-29T00:56:34;44868.16;;;-137.01;100.00
8756;BME280;4414;42.670;23.228;2022-07-29T00:59:01;44885.38;;;-137.01;100.00
8756;BME280;4414;42.670;23.228;2022-07-29T01:01:27;44891.13;;;-137.01;100.00
8756;BME280;4414;42.670;23.228;2022-07-29T01:03:56;44862.44;;;-137.01;100.00
8756;BME280;4414;42.670;23.228;2022-07-29T01:06:23;44866.25;;;-137.01;100.00
8756;BME280;4414;42.670;23.228;2022-07-29T01:08:51;44864.34;;;-137.01;100.00
8756;BME280;4414;42.670;23.228;2022-07-29T01:11:18;44889.19;;;-137.01;100.00
8756;BME280;4414;42.670;23.228;2022-07-29T01:13:46;44872.00;;;-137.01;100.00
8756;BME280;4414;42.670;23.228;2022-07-29T01:16:18;44866.25;;;-137.01;100.00
8756;BME280;4414;42.670;23.228;2022-07-29T01:18:49;44864.34;;;-137.01;100.00
8756;BME280;4414;42.670;23.228;2022-07-29T01:21:47;44868.16;;;-137.01;100.00
8756;BME280;4414;42.670;23.228;2022-07-29T01:24:39;44883.47;;;-137.01;100.00
8756;BME280;4414;42.670;23.228;2022-07-29T01:27:23;44883.47;;;-137.01;100.00
8756;BME280;4414;42.670;23.228;2022-07-29T01:29:58;44856.69;;;-137.01;100.00
8756;BME280;4414;42.670;23.228;2022-07-29T01:32:28;44872.00;;;-137.01;100.00
8756;BME280;4414;42.670;23.228;2022-07-29T01:34:58;44875.81;;;-137.01;100.00
8756;BME280;4414;42.670;23.228;2022-07-29T01:37:32;44868.16;;;-137.01;100.00
8756;BME280;4414;42.670;23.228;2022-07-29T01:40:01;44887.28;;;-137.01;100.00
8756;BME280;4414;42.670;23.228;2022-07-29T01:42:33;44870.06;;;-137.01;100.00
8756;BME280;4414;42.670;23.228;2022-07-29T01:45:07;44894.94;;;-137.01;100.00
8756;BME280;4414;42.670;23.228;2022-07-29T01:47:38;44854.78;;;-137.01;100.00
8756;BME280;4414;42.670;23.228;2022-07-29T01:50:10;44872.00;;;-137.01;100.00
8756;BME280;4414;42.670;23.228;2022-07-29T01:52:41;44870.06;;;-137.01;100.00
8756;BME280;4414;42.670;23.228;2022-07-29T01:55:12;44891.13;;;-137.01;100.00
8756;BME280;4414;42.670;23.228;2022-07-29T01:57:43;44860.50;;;-137.01;100.00
8756;BME280;4414;42.670;23.228;2022-07-29T02:00:14;44868.16;;;-137.01;100.00
8756;BME280;4414;42.670;23.228;2022-07-29T02:02:43;44879.63;;;-137.01;100.00
8756;BME280;4414;42.670;23.228;2022-07-29T02:05:14;44883.47;;;-137.01;100.00
8756;BME280;4414;42.670;23.228;2022-07-29T02:07:42;44906.41;;;-137.01;100.00
8756;BME280;4414;42.670;23.228;2022-07-29T02:10:10;44891.13;;;-137.01;100.00
8756;BME280;4414;42.670;23.228;2022-07-29T02:12:39;44898.75;;;-137.01;100.00
8756;BME280;4414;42.670;23.228;2022-07-29T02:15:08;44879.63;;;-137.01;100.00
8756;BME280;4414;42.670;23.228;2022-07-29T02:17:40;44887.28;;;-137.01;100.00
8756;BME280;4414;42.670;23.228;2022-07-29T02:20:09;44864.34;;;-137.01;100.00
8756;BME280;4414;42.670;23.228;2022-07-29T02:22:38;44873.91;;;-137.01;100.00
8756;BME280;4414;42.670;23.228;2022-07-29T02:25:07;44883.47;;;-137.01;100.00
8756;BME280;4414;42.670;23.228;2022-07-29T02:27:35;44893.03;;;-137.01;100.00
8756;BME280;4414;42.670;23.228;2022-07-29T02:30:06;44885.38;;;-137.01;100.00
8756;BME280;4414;42.670;23.228;2022-07-29T02:32:37;44866.25;;;-137.01;100.00
8756;BME280;4414;42.670;23.228;2022-07-29T02:35:06;44891.13;;;-137.01;100.00
8756;BME280;4414;42.670;23.228;2022-07-29T02:37:33;44891.13;;;-137.01;100.00
8756;BME280;4414;42.670;23.228;2022-07-29T02:40:02;44875.81;;;-137.01;100.00
8756;BME280;4414;42.670;23.228;2022-07-29T02:42:31;44873.91;;;-137.01;100.00
8756;BME280;4414;42.670;23.228;2022-07-29T02:44:58;44896.84;;;-137.01;100.00
8756;BME280;4414;42.670;23.228;2022-07-29T02:47:34;44856.69;;;-137.01;100.00
8756;BME280;4414;42.670;23.228;2022-07-29T02:50:06;44860.50;;;-137.01;100.00
8756;BME280;4414;42.670;23.228;2022-07-29T02:52:40;44893.03;;;-137.01;100.00
8756;BME280;4414;42.670;23.228;2022-07-29T02:55:13;44860.50;;;-137.01;100.00
8756;BME280;4414;42.670;23.228;2022-07-29T02:57:43;44902.59;;;-137.01;100.00
8756;BME280;4414;42.670;23.228;2022-07-29T03:00:12;44889.19;;;-137.01;100.00
8756;BME280;4414;42.670;23.228;2022-07-29T03:02:42;44881.56;;;-137.01;100.00
8756;BME280;4414;42.670;23.228;2022-07-29T03:05:15;44856.69;;;-137.01;100.00
8756;BME280;4414;42.670;23.228;2022-07-29T03:07:46;44900.69;;;-137.01;100.00
8756;BME280;4414;42.670;23.228;2022-07-29T03:10:14;44883.47;;;-137.01;100.00
8756;BME280;4414;42.670;23.228;2022-07-29T03:12:41;44885.38;;;-137.01;100.00
8756;BME280;4414;42.670;23.228;2022-07-29T03:15:09;44896.84;;;-137.01;100.00
8756;BME280;4414;42.670;23.228;2022-07-29T03:17:37;44894.94;;;-137.01;100.00
8756;BME280;4414;42.670;23.228;2022-07-29T03:20:07;44881.56;;;-137.01;100.00
8756;BME280;4414;42.670;23.228;2022-07-29T03:22:40;44872.00;;;-137.01;100.00
8756;BME280;4414;42.670;23.228;2022-07-29T03:25:09;44885.38;;;-137.01;100.00
8756;BME280;4414;42.670;23.228;2022-07-29T03:27:36;44858.59;;;-137.01;100.00
8756;BME280;4414;42.670;23.228;2022-07-29T03:30:04;44872.00;;;-137.01;100.00
8756;BME280;4414;42.670;23.228;2022-07-29T03:32:31;44904.50;;;-137.01;100.00
8756;BME280;4414;42.670;23.228;2022-07-29T03:34:58;44883.47;;;-137.01;100.00
8756;BME280;4414;42.670;23.228;2022-07-29T03:37:25;44893.03;;;-137.01;100.00
8756;BME280;4414;42.670;23.228;2022-07-29T03:39:55;44898.75;;;-137.01;100.00
8756;BME280;4414;42.670;23.228;2022-07-29T03:42:25;44889.19;;;-137.01;100.00
8756;BME280;4414;42.670;23.228;2022-07-29T03:44:54;44879.63;;;-137.01;100.00
8756;BME280;4414;42.670;23.228;2022-07-29T03:47:23;44887.28;;;-137.01;100.00
8756;BME280;4414;42.670;23.228;2022-07-29T03:49:55;44891.13;;;-137.01;100.00
8756;BME280;4414;42.670;23.228;2022-07-29T03:52:23;44893.03;;;-137.01;100.00
8756;BME280;4414;42.670;23.228;2022-07-29T03:54:50;44891.13;;;-137.01;100.00
8756;BME280;4414;42.670;23.228;2022-07-29T03:57:20;44883.47;;;-137.01;100.00
8756;BME280;4414;42.670;23.228;2022-07-29T03:59:50;44902.59;;;-137.01;100.00
8756;BME280;4414;42.670;23.228;2022-07-29T04:02:17;44887.28;;;-137.01;100.00
8756;BME280;4414;42.670;23.228;2022-07-29T04:04:45;44873.91;;;-137.01;100.00
8756;BME280;4414;42.670;23.228;2022-07-29T04:07:12;44868.16;;;-137.01;100.00
8756;BME280;4414;42.670;23.228;2022-07-29T04:09:40;44906.41;;;-137.01;100.00
8756;BME280;4414;42.670;23.228;2022-07-29T04:12:07;44887.28;;;-137.01;100.00
8756;BME280;4414;42.670;23.228;2022-07-29T04:14:35;44864.34;;;-137.01;100.00
8756;BME280;4414;42.670;23.228;2022-07-29T04:17:03;44879.63;;;-137.01;100.00
8756;BME280;4414;42.670;23.228;2022-07-29T04:19:30;44898.75;;;-137.01;100.00
8756;BME280;4414;42.670;23.228;2022-07-29T04:21:58;44887.28;;;-137.01;100.00
8756;BME280;4414;42.670;23.228;2022-07-29T04:24:25;44902.59;;;-137.01;100.00
8756;BME280;4414;42.670;23.228;2022-07-29T04:26:52;44887.28;;;-137.01;100.00
8756;BME280;4414;42.670;23.228;2022-07-29T04:29:19;44896.84;;;-137.01;100.00
8756;BME280;4414;42.670;23.228;2022-07-29T04:31:47;44902.59;;;-137.01;100.00
8756;BME280;4414;42.670;23.228;2022-07-29T04:34:14;44893.03;;;-137.01;100.00
8756;BME280;4414;42.670;23.228;2022-07-29T04:36:40;44894.94;;;-137.01;100.00
8756;BME280;4414;42.670;23.228;2022-07-29T04:39:07;44902.59;;;-137.01;100.00
8756;BME280;4414;42.670;23.228;2022-07-29T04:41:35;44896.84;;;-137.01;100.00
8756;BME280;4414;42.670;23.228;2022-07-29T04:44:02;44894.94;;;-137.01;100.00
8756;BME280;4414;42.670;23.228;2022-07-29T04:46:30;44891.13;;;-137.01;100.00
8756;BME280;4414;42.670;23.228;2022-07-29T04:48:59;44912.16;;;-137.01;100.00
8756;BME280;4414;42.670;23.228;2022-07-29T04:51:25;44915.97;;;-137.01;100.00
8756;BME280;4414;42.670;23.228;2022-07-29T04:53:52;44889.19;;;-137.01;100.00
8756;BME280;4414;42.670;23.228;2022-07-29T04:56:19;44914.06;;;-137.01;100.00
8756;BME280;4414;42.670;23.228;2022-07-29T04:58:46;44906.41;;;-137.01;100.00
8756;BME280;4414;42.670;23.228;2022-07-29T05:01:13;44902.59;;;-137.01;100.00
8756;BME280;4414;42.670;23.228;2022-07-29T05:03:40;44887.28;;;-137.01;100.00
8756;BME280;4414;42.670;23.228;2022-07-29T05:06:08;44917.91;;;-137.01;100.00
8756;BME280;4414;42.670;23.228;2022-07-29T05:08:35;44910.25;;;-137.01;100.00
8756;BME280;4414;42.670;23.228;2022-07-29T05:11:02;44910.25;;;-137.01;100.00
8756;BME280;4414;42.670;23.228;2022-07-29T05:13:29;44885.38;;;-137.01;100.00
8756;BME280;4414;42.670;23.228;2022-07-29T05:15:55;44914.06;;;-137.01;100.00
8756;BME280;4414;42.670;23.228;2022-07-29T05:18:23;44906.41;;;-137.01;100.00
8756;BME280;4414;42.670;23.228;2022-07-29T05:20:50;44914.06;;;-137.01;100.00
8756;BME280;4414;42.670;23.228;2022-07-29T05:23:18;44915.97;;;-137.01;100.00
8756;BME280;4414;42.670;23.228;2022-07-29T05:25:45;44929.38;;;-137.01;100.00
8756;BME280;4414;42.670;23.228;2022-07-29T05:28:12;44902.59;;;-137.01;100.00
8756;BME280;4414;42.670;23.228;2022-07-29T05:30:39;44914.06;;;-137.01;100.00
8756;BME280;4414;42.670;23.228;2022-07-29T05:33:06;44912.16;;;-137.01;100.00
8756;BME280;4414;42.670;23.228;2022-07-29T05:35:32;44910.25;;;-137.01;100.00
8756;BME280;4414;42.670;23.228;2022-07-29T05:38:00;44906.41;;;-137.01;100.00
8756;BME280;4414;42.670;23.228;2022-07-29T05:40:28;44923.63;;;-137.01;99.95
8756;BME280;4414;42.670;23.228;2022-07-29T05:42:55;44912.16;;;-137.01;100.00
8756;BME280;4414;42.670;23.228;2022-07-29T05:45:22;44923.63;;;-137.01;98.43
8756;BME280;4414;42.670;23.228;2022-07-29T05:47:51;44919.81;;;-137.01;97.04
8756;BME280;4414;42.670;23.228;2022-07-29T05:50:17;44912.16;;;-137.01;97.59
8756;BME280;4414;42.670;23.228;2022-07-29T05:52:44;44906.41;;;-137.01;97.43
8756;BME280;4414;42.670;23.228;2022-07-29T05:55:11;44914.06;;;-137.01;96.57
8756;BME280;4414;42.670;23.228;2022-07-29T05:57:39;44921.72;;;-137.01;96.82
8756;BME280;4414;42.670;23.228;2022-07-29T06:00:07;44912.16;;;-137.01;96.88
8756;BME280;4414;42.670;23.228;2022-07-29T06:02:34;44933.19;;;-137.01;95.39
8756;BME280;4414;42.670;23.228;2022-07-29T06:05:00;44929.38;;;-137.01;97.29
8756;BME280;4414;42.670;23.228;2022-07-29T06:07:27;44937.03;;;-137.01;95.09
8756;BME280;4414;42.670;23.228;2022-07-29T06:09:54;44917.91;;;-137.01;93.81
8756;BME280;4414;42.670;23.228;2022-07-29T06:12:21;44917.91;;;-137.01;93.65
8756;BME280;4414;42.670;23.228;2022-07-29T06:14:50;44902.59;;;-137.01;94.10
8756;BME280;4414;42.670;23.228;2022-07-29T06:17:16;44914.06;;;-137.01;93.21
8756;BME280;4414;42.670;23.228;2022-07-29T06:19:43;44906.41;;;-137.01;94.26
8756;BME280;4414;42.670;23.228;2022-07-29T06:22:10;44912.16;;;-137.01;92.96
8756;BME280;4414;42.670;23.228;2022-07-29T06:24:37;44925.53;;;-137.01;93.40
8756;BME280;4414;42.670;23.228;2022-07-29T06:27:06;44917.91;;;-137.01;93.86
8756;BME280;4414;42.670;23.228;2022-07-29T06:29:33;44915.97;;;-137.01;92.20
8756;BME280;4414;42.670;23.228;2022-07-29T06:32:01;44919.81;;;-137.01;90.54
8756;BME280;4414;42.670;23.228;2022-07-29T06:34:28;44925.53;;;-137.01;91.02
8756;BME280;4414;42.670;23.228;2022-07-29T06:36:55;44917.91;;;-137.01;92.85
8756;BME280;4414;42.670;23.228;2022-07-29T06:39:22;44948.50;;;-137.01;94.00
8756;BME280;4414;42.670;23.228;2022-07-29T06:41:49;44944.66;;;-137.01;93.10
8756;BME280;4414;42.670;23.228;2022-07-29T06:44:17;44942.75;;;-137.01;92.15
8756;BME280;4414;42.670;23.228;2022-07-29T06:46:44;44942.75;;;-137.01;90.43
8756;BME280;4414;42.670;23.228;2022-07-29T06:49:13;44908.34;;;-137.01;90.14
8756;BME280;4414;42.670;23.228;2022-07-29T06:51:40;44961.88;;;-137.01;90.02
8756;BME280;4414;42.670;23.228;2022-07-29T06:54:07;44921.72;;;-137.01;89.28
8756;BME280;4414;42.670;23.228;2022-07-29T06:56:35;44927.47;;;-137.01;88.48
8756;BME280;4414;42.670;23.228;2022-07-29T06:59:02;44915.97;;;-137.01;88.15
8756;BME280;4414;42.670;23.228;2022-07-29T07:01:29;44942.75;;;-137.01;87.36
8756;BME280;4414;42.670;23.228;2022-07-29T07:03:56;44935.09;;;-137.01;89.35
8756;BME280;4414;42.670;23.228;2022-07-29T07:06:24;44956.16;;;-137.01;87.99
8756;BME280;4414;42.670;23.228;2022-07-29T07:08:51;44929.38;;;-137.01;83.78
8756;BME280;4414;42.670;23.228;2022-07-29T07:11:18;44925.53;;;-137.01;83.52
8756;BME280;4414;42.670;23.228;2022-07-29T07:13:44;44950.41;;;-137.01;81.97
8756;BME280;4414;42.670;23.228;2022-07-29T07:16:12;44919.81;;;-137.01;83.54
8756;BME280;4414;42.670;23.228;2022-07-29T07:18:39;44961.88;;;-137.01;80.24
8756;BME280;4414;42.670;23.228;2022-07-29T07:21:05;44958.06;;;-137.01;81.62
8756;BME280;4414;42.670;23.228;2022-07-29T07:23:33;44948.50;;;-137.01;82.86
8756;BME280;4414;42.670;23.228;2022-07-29T07:26:00;44988.66;;;-137.01;81.87
8756;BME280;4414;42.670;23.228;2022-07-29T07:28:28;44946.59;;;-137.01;80.15
8756;BME280;4414;42.670;23.228;2022-07-29T07:30:55;44952.31;;;-137.01;80.36
8756;BME280;4414;42.670;23.228;2022-07-29T07:33:22;44929.38;;;-137.01;81.41
8756;BME280;4414;42.670;23.228;2022-07-29T07:35:48;44948.50;;;-137.01;80.73
8756;BME280;4414;42.670;23.228;2022-07-29T07:38:15;44965.72;;;-137.01;81.38
8756;BME280;4414;42.670;23.228;2022-07-29T07:40:43;44954.25;;;-137.01;81.05
8756;BME280;4414;42.670;23.228;2022-07-29T07:43:11;44952.31;;;-137.01;79.26
8756;BME280;4414;42.670;23.228;2022-07-29T07:45:38;44929.38;;;-137.01;80.50
8756;BME280;4414;42.670;23.228;2022-07-29T07:48:05;44969.53;;;-137.01;81.54
8756;BME280;4414;42.670;23.228;2022-07-29T07:50:32;44937.03;;;-137.01;80.66
8756;BME280;4414;42.670;23.228;2022-07-29T07:52:59;44969.53;;;-137.01;80.71
8756;BME280;4414;42.670;23.228;2022-07-29T07:55:27;44956.16;;;-137.01;78.57
8756;BME280;4414;42.670;23.228;2022-07-29T07:57:55;44956.16;;;-137.01;80.54
8756;BME280;4414;42.670;23.228;2022-07-29T08:00:22;44973.38;;;-137.01;77.87
8756;BME280;4414;42.670;23.228;2022-07-29T08:02:49;44979.09;;;-137.01;78.87
8756;BME280;4414;42.670;23.228;2022-07-29T08:05:16;44994.41;;;-137.01;78.80
8756;BME280;4414;42.670;23.228;2022-07-29T08:07:44;44982.94;;;-137.01;78.88
8756;BME280;4414;42.670;23.228;2022-07-29T08:10:12;44979.09;;;-137.01;77.58
8756;BME280;4414;42.670;23.228;2022-07-29T08:12:39;44971.44;;;-137.01;77.97
8756;BME280;4414;42.670;23.228;2022-07-29T08:15:08;44986.75;;;-137.01;77.87
8756;BME280;4414;42.670;23.228;2022-07-29T08:17:35;45013.53;;;-137.01;74.94
8756;BME280;4414;42.670;23.228;2022-07-29T08:20:03;44977.19;;;-137.01;75.86
8756;BME280;4414;42.670;23.228;2022-07-29T08:22:30;44996.31;;;-137.01;75.80
8756;BME280;4414;42.670;23.228;2022-07-29T08:24:57;44982.94;;;-137.01;74.10
8756;BME280;4414;42.670;23.228;2022-07-29T08:27:24;44982.94;;;-137.01;70.77
8756;BME280;4414;42.670;23.228;2022-07-29T08:29:51;45000.13;;;-137.01;74.17
8756;BME280;4414;42.670;23.228;2022-07-29T08:32:20;45007.78;;;-137.01;73.25
8756;BME280;4414;42.670;23.228;2022-07-29T08:34:46;45017.34;;;-137.01;70.52
8756;BME280;4414;42.670;23.228;2022-07-29T08:37:13;45005.88;;;-137.01;72.73
8756;BME280;4414;42.670;23.228;2022-07-29T08:39:40;45003.97;;;-137.01;70.78
8756;BME280;4414;42.670;23.228;2022-07-29T08:42:07;45009.72;;;-137.01;70.69
8756;BME280;4414;42.670;23.228;2022-07-29T08:44:35;44990.56;;;-137.01;69.85
8756;BME280;4414;42.670;23.228;2022-07-29T08:47:02;45019.28;;;-137.01;70.68
8756;BME280;4414;42.670;23.228;2022-07-29T08:49:33;45002.06;;;-137.01;69.59
8756;BME280;4414;42.670;23.228;2022-07-29T08:52:00;44994.41;;;-137.01;68.81
8756;BME280;4414;42.670;23.228;2022-07-29T08:54:27;45028.84;;;-137.01;65.58
8756;BME280;4414;42.670;23.228;2022-07-29T08:56:54;45013.53;;;-137.01;67.12
8756;BME280;4414;42.670;23.228;2022-07-29T08:59:22;45002.06;;;-137.01;69.34
8756;BME280;4414;42.670;23.228;2022-07-29T09:01:53;45007.78;;;-137.01;69.23
8756;BME280;4414;42.670;23.228;2022-07-29T09:04:20;45017.34;;;-137.01;65.97
8756;BME280;4414;42.670;23.228;2022-07-29T09:06:51;45021.19;;;-137.01;68.00
8756;BME280;4414;42.670;23.228;2022-07-29T09:09:18;45025.00;;;-137.01;67.21
8756;BME280;4414;42.670;23.228;2022-07-29T09:11:45;45023.09;;;-137.01;62.69
8756;BME280;4414;42.670;23.228;2022-07-29T09:14:12;45026.91;;;-137.01;63.20
8756;BME280;4414;42.670;23.228;2022-07-29T09:16:47;45040.31;;;-137.01;63.76
8756;BME280;4414;42.670;23.228;2022-07-29T09:19:25;45034.56;;;-137.01;62.87
8756;BME280;4414;42.670;23.228;2022-07-29T09:21:55;45053.69;;;-137.01;64.19
8756;BME280;4414;42.670;23.228;2022-07-29T09:24:40;45047.97;;;-137.01;63.92
8756;BME280;4414;42.670;23.228;2022-07-29T09:27:18;45047.97;;;-137.01;61.48
8756;BME280;4414;42.670;23.228;2022-07-29T09:29:45;45036.47;;;-137.01;61.55
8756;BME280;4414;42.670;23.228;2022-07-29T09:32:12;45030.75;;;-137.01;61.69
8756;BME280;4414;42.670;23.228;2022-07-29T09:34:39;45047.97;;;-137.01;59.71
8756;BME280;4414;42.670;23.228;2022-07-29T09:37:07;45065.19;;;-137.01;58.96
8756;BME280;4414;42.670;23.228;2022-07-29T09:39:36;45069.00;;;-137.01;60.18
8756;BME280;4414;42.670;23.228;2022-07-29T09:42:04;45059.44;;;-137.01;60.51
8756;BME280;4414;42.670;23.228;2022-07-29T09:44:42;45055.63;;;-137.01;59.21
8756;BME280;4414;42.670;23.228;2022-07-29T09:47:09;45051.78;;;-137.01;60.00
8756;BME280;4414;42.670;23.228;2022-07-29T09:49:50;45067.09;;;-137.01;60.76
8756;BME280;4414;42.670;23.228;2022-07-29T09:52:18;45044.13;;;-137.01;56.88
8756;BME280;4414;42.670;23.228;2022-07-29T09:54:45;45026.91;;;-137.01;55.93
8756;BME280;4414;42.670;23.228;2022-07-29T09:57:23;45040.31;;;-137.01;57.71
8756;BME280;4414;42.670;23.228;2022-07-29T09:59:56;45070.91;;;-137.01;53.86
8756;BME280;4414;42.670;23.228;2022-07-29T10:02:27;45051.78;;;-137.01;54.92
8756;BME280;4414;42.670;23.228;2022-07-29T10:04:55;45069.00;;;-137.01;55.10
8756;BME280;4414;42.670;23.228;2022-07-29T10:07:23;45036.47;;;-137.01;53.74
8756;BME280;4414;42.670;23.228;2022-07-29T10:09:53;45040.31;;;-137.01;52.09
8756;BME280;4414;42.670;23.228;2022-07-29T10:12:21;45065.19;;;-137.01;53.23
8756;BME280;4414;42.670;23.228;2022-07-29T10:14:48;45051.78;;;-137.01;52.44
8756;BME280;4414;42.670;23.228;2022-07-29T10:17:16;45055.63;;;-137.01;56.35
8756;BME280;4414;42.670;23.228;2022-07-29T10:19:43;45072.84;;;-137.01;54.17
8756;BME280;4414;42.670;23.228;2022-07-29T10:22:10;45063.25;;;-137.01;53.28
8756;BME280;4414;42.670;23.228;2022-07-29T10:24:39;45076.66;;;-137.01;55.24
8756;BME280;4414;42.670;23.228;2022-07-29T10:27:08;45069.00;;;-137.01;54.19
8756;BME280;4414;42.670;23.228;2022-07-29T10:29:35;45074.75;;;-137.01;54.74
8756;BME280;4414;42.670;23.228;2022-07-29T10:32:20;45059.44;;;-137.01;55.43
8756;BME280;4414;42.670;23.228;2022-07-29T10:35:09;45067.09;;;-137.01;56.48
8756;BME280;4414;42.670;23.228;2022-07-29T10:40:36;45086.22;;;-137.01;55.01
8756;BME280;4414;42.670;23.228;2022-07-29T10:43:26;45072.84;;;-137.01;52.14
8756;BME280;4414;42.670;23.228;2022-07-29T10:45:56;45088.13;;;-137.01;53.63
8756;BME280;4414;42.670;23.228;2022-07-29T10:48:24;45070.91;;;-137.01;53.19
8756;BME280;4414;42.670;23.228;2022-07-29T10:50:55;45091.97;;;-137.01;51.89
8756;BME280;4414;42.670;23.228;2022-07-29T10:53:24;45067.09;;;-137.01;50.58
8756;BME280;4414;42.670;23.228;2022-07-29T10:55:52;45120.66;;;-137.01;51.50
8756;BME280;4414;42.670;23.228;2022-07-29T10:58:21;45074.75;;;-137.01;51.46
8756;BME280;4414;42.670;23.228;2022-07-29T11:00:49;45093.88;;;-137.01;49.70
8756;BME280;4414;42.670;23.228;2022-07-29T11:03:45;45070.91;;;-137.01;50.20
8756;BME280;4414;42.670;23.228;2022-07-29T11:06:13;45082.41;;;-137.01;50.66
8756;BME280;4414;42.670;23.228;2022-07-29T11:08:40;45109.16;;;-137.01;53.51
8756;BME280;4414;42.670;23.228;2022-07-29T11:11:35;45067.09;;;-137.01;52.73
8756;BME280;4414;42.670;23.228;2022-07-29T11:14:06;45067.09;;;-137.01;52.69
8756;BME280;4414;42.670;23.228;2022-07-29T11:16:57;45082.41;;;-137.01;50.10
8756;BME280;4414;42.670;23.228;2022-07-29T11:19:24;45116.81;;;-137.01;52.36
8756;BME280;4414;42.670;23.228;2022-07-29T11:21:51;45090.03;;;-137.01;51.45
8756;BME280;4414;42.670;23.228;2022-07-29T11:24:21;45095.78;;;-137.01;48.76
8756;BME280;4414;42.670;23.228;2022-07-29T11:27:15;45086.22;;;-137.01;52.36
8756;BME280;4414;42.670;23.228;2022-07-29T11:29:53;45099.59;;;-137.01;50.93
8756;BME280;4414;42.670;23.228;2022-07-29T11:32:22;45101.53;;;-137.01;48.95
8756;BME280;4414;42.670;23.228;2022-07-29T11:34:50;45120.66;;;-137.01;49.98
8756;BME280;4414;42.670;23.228;2022-07-29T11:37:36;45093.88;;;-137.01;49.73
8756;BME280;4414;42.670;23.228;2022-07-29T11:40:12;45109.16;;;-137.01;49.06
8756;BME280;4414;42.670;23.228;2022-07-29T11:42:53;45093.88;;;-137.01;51.00
8756;BME280;4414;42.670;23.228;2022-07-29T11:45:25;45097.69;;;-137.01;51.50
8756;BME280;4414;42.670;23.228;2022-07-29T11:47:58;45107.25;;;-137.01;51.13
8756;BME280;4414;42.670;23.228;2022-07-29T11:50:33;45088.13;;;-137.01;50.35
8756;BME280;4414;42.670;23.228;2022-07-29T11:53:03;45118.75;;;-137.01;48.82
8756;BME280;4414;42.670;23.228;2022-07-29T11:55:29;45109.16;;;-137.01;51.19
8756;BME280;4414;42.670;23.228;2022-07-29T11:58:02;45109.16;;;-137.01;47.15
8756;BME280;4414;42.670;23.228;2022-07-29T12:00:30;45109.16;;;-137.01;48.46
8756;BME280;4414;42.670;23.228;2022-07-29T12:02:59;45105.34;;;-137.01;49.60
8756;BME280;4414;42.670;23.228;2022-07-29T12:05:34;45137.88;;;-137.01;49.41
8756;BME280;4414;42.670;23.228;2022-07-29T12:08:14;45118.75;;;-137.01;48.85
8756;BME280;4414;42.670;23.228;2022-07-29T12:10:45;45128.31;;;-137.01;45.42
8756;BME280;4414;42.670;23.228;2022-07-29T12:13:14;45114.91;;;-137.01;46.37
8756;BME280;4414;42.670;23.228;2022-07-29T12:15:41;45116.81;;;-137.01;48.35
8756;BME280;4414;42.670;23.228;2022-07-29T12:18:11;45107.25;;;-137.01;45.71
8756;BME280;4414;42.670;23.228;2022-07-29T12:20:38;45086.22;;;-137.01;48.27
8756;BME280;4414;42.670;23.228;2022-07-29T12:23:06;45091.97;;;-137.01;44.48
8756;BME280;4414;42.670;23.228;2022-07-29T12:25:35;45109.16;;;-137.01;44.02
8756;BME280;4414;42.670;23.228;2022-07-29T12:28:05;45113.00;;;-137.01;46.92
8756;BME280;4414;42.670;23.228;2022-07-29T12:30:39;45126.38;;;-137.01;44.10
8756;BME280;4414;42.670;23.228;2022-07-29T12:33:17;45132.13;;;-137.01;44.51
8756;BME280;4414;42.670;23.228;2022-07-29T12:35:46;45135.94;;;-137.01;45.59
8756;BME280;4414;42.670;23.228;2022-07-29T12:38:14;45118.75;;;-137.01;42.87
8756;BME280;4414;42.670;23.228;2022-07-29T12:40:41;45128.31;;;-137.01;42.58
8756;BME280;4414;42.670;23.228;2022-07-29T12:43:10;45091.97;;;-137.01;45.57
8756;BME280;4414;42.670;23.228;2022-07-29T12:45:39;45095.78;;;-137.01;44.46
8756;BME280;4414;42.670;23.228;2022-07-29T12:48:06;45130.22;;;-137.01;45.63
8756;BME280;4414;42.670;23.228;2022-07-29T12:50:35;45105.34;;;-137.01;42.72
8756;BME280;4414;42.670;23.228;2022-07-29T12:53:09;45097.69;;;-137.01;45.97
8756;BME280;4414;42.670;23.228;2022-07-29T12:55:44;45114.91;;;-137.01;42.84
8756;BME280;4414;42.670;23.228;2022-07-29T12:58:25;45105.34;;;-137.01;45.80
8756;BME280;4414;42.670;23.228;2022-07-29T13:01:01;45134.03;;;-137.01;45.54